Time,TemperatureF,DewpointF,PressureIn,WindDirection,WindDirectionDegrees,WindSpeedMPH,WindSpeedGustMPH,Humidity,HourlyPrecipIn,Conditions,Clouds,dailyrainin,SolarRadiationWatts/m^2,SoftwareType,DateUTC
2013-05-04 00:04:00,38.4,26.0,30.13,NE,53,0.0,0.0,61,0.00,,,0.00,0,weatherlink.com 1.10,2013-05-04 05:04:00,
2013-05-04 00:19:00,37.5,26.0,30.14,NE,53,0.0,0.0,63,0.00,,,0.00,0,weatherlink.com 1.10,2013-05-04 05:19:00,
2013-05-04 00:34:00,37.7,26.0,30.14,NE,53,0.0,0.0,62,0.00,,,0.00,0,weatherlink.com 1.10,2013-05-04 05:34:00,
2013-05-04 00:50:00,37.0,26.0,30.14,NE,53,0.0,0.0,64,0.00,,,0.00,0,weatherlink.com 1.10,2013-05-04 05:50:00,
2013-05-04 01:04:00,36.4,25.0,30.14,NE,53,0.0,0.0,64,0.00,,,0.00,0,weatherlink.com 1.10,2013-05-04 06:04:00,
2013-05-04 01:19:00,35.7,25.0,30.14,NE,51,0.0,0.0,66,0.00,,,0.00,0,weatherlink.com 1.10,2013-05-04 06:19:00,
2013-05-04 01:34:00,36.0,25.0,30.13,NE,51,0.0,0.0,64,0.00,,,0.00,0,weatherlink.com 1.10,2013-05-04 06:34:00,
2013-05-04 02:04:00,36.2,23.0,30.14,NNE,21,0.0,0.0,59,0.00,,,0.00,0,weatherlink.com 1.10,2013-05-04 07:04:00,
2013-05-04 02:19:00,35.7,22.0,30.14,NNE,21,0.0,0.0,59,0.00,,,0.00,0,weatherlink.com 1.10,2013-05-04 07:19:00,
2013-05-04 02:34:00,35.8,23.0,30.14,NNE,21,0.0,0.0,59,0.00,,,0.00,0,weatherlink.com 1.10,2013-05-04 07:34:00,
2013-05-04 02:49:00,35.6,23.0,30.14,NNE,21,0.0,0.0,60,0.00,,,0.00,0,weatherlink.com 1.10,2013-05-04 07:49:00,
2013-05-04 03:04:00,34.7,23.0,30.14,NNE,21,0.0,0.0,62,0.00,,,0.00,0,weatherlink.com 1.10,2013-05-04 08:04:00,
2013-05-04 03:20:00,32.8,23.0,30.14,NNE,21,0.0,0.0,67,0.00,,,0.00,0,weatherlink.com 1.10,2013-05-04 08:20:00,
2013-05-04 03:35:00,31.1,23.0,30.14,North,5,0.0,0.0,72,0.00,,,0.00,0,weatherlink.com 1.10,2013-05-04 08:35:00,
2013-05-04 03:50:00,30.9,23.0,30.15,North,5,0.0,0.0,73,0.00,,,0.00,0,weatherlink.com 1.10,2013-05-04 08:50:00,
2013-05-04 04:04:00,30.3,23.0,30.15,NW,313,0.0,3.0,74,0.00,,,0.00,0,weatherlink.com 1.10,2013-05-04 09:04:00,
2013-05-04 04:20:00,30.5,23.0,30.15,WNW,302,0.0,2.0,74,0.00,,,0.00,0,weatherlink.com 1.10,2013-05-04 09:20:00,
2013-05-04 04:34:00,29.5,23.0,30.16,WNW,302,0.0,1.0,76,0.00,,,0.00,0,weatherlink.com 1.10,2013-05-04 09:34:00,
2013-05-04 04:49:00,29.4,23.0,30.15,WNW,302,0.0,0.0,76,0.00,,,0.00,0,weatherlink.com 1.10,2013-05-04 09:49:00,
2013-05-04 05:20:00,28.7,23.0,30.16,WNW,302,0.0,0.0,78,0.00,,,0.00,0,weatherlink.com 1.10,2013-05-04 10:20:00,
2013-05-04 05:35:00,28.6,23.0,30.16,WNW,302,0.0,0.0,78,0.00,,,0.00,0,weatherlink.com 1.10,2013-05-04 10:35:00,
2013-05-04 05:50:00,28.0,22.0,30.16,WNW,302,0.0,0.0,79,0.00,,,0.00,0,weatherlink.com 1.10,2013-05-04 10:50:00,
2013-05-04 06:20:00,28.0,22.0,30.17,WNW,284,0.0,4.0,78,0.00,,,0.00,0,weatherlink.com 1.10,2013-05-04 11:20:00,
2013-05-04 06:35:00,27.9,22.0,30.17,WNW,284,0.0,1.0,78,0.00,,,0.00,0,weatherlink.com 1.10,2013-05-04 11:35:00,
2013-05-04 06:51:00,27.5,22.0,30.17,WNW,293,0.0,0.0,80,0.00,,,0.00,9,weatherlink.com 1.10,2013-05-04 11:51:00,
2013-05-04 07:05:00,28.3,23.0,30.17,NW,319,0.0,0.0,79,0.00,,,0.00,16,weatherlink.com 1.10,2013-05-04 12:05:00,
2013-05-04 07:50:00,32.4,26.0,30.18,NW,309,0.0,6.0,77,0.00,,,0.00,93,weatherlink.com 1.10,2013-05-04 12:50:00,
2013-05-04 08:05:00,33.5,27.0,30.18,NW,313,2.0,5.0,77,0.00,,,0.00,190,weatherlink.com 1.10,2013-05-04 13:05:00,
2013-05-04 08:20:00,35.5,28.0,30.19,NNW,332,0.0,6.0,74,0.00,,,0.00,258,weatherlink.com 1.10,2013-05-04 13:20:00,
2013-05-04 08:35:00,37.1,28.0,30.19,NNW,336,0.0,9.0,70,0.00,,,0.00,306,weatherlink.com 1.10,2013-05-04 13:35:00,
2013-05-04 08:50:00,38.7,28.0,30.18,NNW,335,0.0,9.0,65,0.00,,,0.00,360,weatherlink.com 1.10,2013-05-04 13:50:00,
2013-05-04 09:06:00,39.7,27.0,30.18,WNW,295,8.0,11.0,60,0.00,,,0.00,413,weatherlink.com 1.10,2013-05-04 14:06:00,
2013-05-04 09:20:00,41.4,27.0,30.18,NNW,327,1.0,10.0,58,0.00,,,0.00,462,weatherlink.com 1.10,2013-05-04 14:20:00,
2013-05-04 09:36:00,42.5,27.0,30.18,NNW,348,4.0,13.0,54,0.00,,,0.00,510,weatherlink.com 1.10,2013-05-04 14:36:00,
2013-05-04 09:51:00,44.2,28.0,30.18,NW,309,6.0,9.0,53,0.00,,,0.00,557,weatherlink.com 1.10,2013-05-04 14:51:00,
2013-05-04 10:06:00,44.9,27.0,30.17,NNW,336,2.0,15.0,50,0.00,,,0.00,603,weatherlink.com 1.10,2013-05-04 15:06:00,
2013-05-04 10:21:00,46.1,28.0,30.18,NNE,26,1.0,11.0,49,0.00,,,0.00,645,weatherlink.com 1.10,2013-05-04 15:21:00,
2013-05-04 10:36:00,47.8,26.0,30.17,NE,45,1.0,13.0,43,0.00,,,0.00,689,weatherlink.com 1.10,2013-05-04 15:36:00,
2013-05-04 10:51:00,48.0,25.0,30.17,NE,36,4.0,14.0,40,0.00,,,0.00,726,weatherlink.com 1.10,2013-05-04 15:51:00,
2013-05-04 11:06:00,49.2,27.0,30.17,ENE,76,0.0,11.0,42,0.00,,,0.00,761,weatherlink.com 1.10,2013-05-04 16:06:00,
2013-05-04 12:17:00,53.1,21.0,30.17,NNW,347,0.0,12.0,29,0.00,,,0.00,898,weatherlink.com 1.10,2013-05-04 17:17:00,
2013-05-04 12:36:00,55.0,23.0,30.17,NNW,335,4.0,13.0,29,0.00,,,0.00,925,weatherlink.com 1.10,2013-05-04 17:36:00,
2013-05-04 12:51:00,55.8,25.0,30.16,NNW,342,5.0,13.0,30,0.00,,,0.00,933,weatherlink.com 1.10,2013-05-04 17:51:00,
2013-05-04 13:06:00,57.0,25.0,30.16,NW,320,8.0,13.0,29,0.00,,,0.00,944,weatherlink.com 1.10,2013-05-04 18:06:00,
2013-05-04 13:21:00,57.3,25.0,30.15,NNW,336,7.0,13.0,29,0.00,,,0.00,951,weatherlink.com 1.10,2013-05-04 18:21:00,
2013-05-04 13:36:00,57.5,22.0,30.14,ENE,61,1.0,13.0,25,0.00,,,0.00,956,weatherlink.com 1.10,2013-05-04 18:36:00,
2013-05-04 13:51:00,59.0,21.0,30.14,NNE,24,3.0,14.0,23,0.00,,,0.00,958,weatherlink.com 1.10,2013-05-04 18:51:00,
2013-05-04 14:06:00,58.5,20.0,30.14,NE,50,5.0,14.0,22,0.00,,,0.00,954,weatherlink.com 1.10,2013-05-04 19:06:00,
2013-05-04 14:21:00,58.7,22.0,30.14,NNW,339,0.0,16.0,24,0.00,,,0.00,944,weatherlink.com 1.10,2013-05-04 19:21:00,
2013-05-04 14:36:00,59.0,23.0,30.13,NE,40,11.0,17.0,25,0.00,,,0.00,935,weatherlink.com 1.10,2013-05-04 19:36:00,
2013-05-04 14:51:00,58.6,24.0,30.13,NNW,335,4.0,12.0,26,0.00,,,0.00,919,weatherlink.com 1.10,2013-05-04 19:51:00,
2013-05-04 15:06:00,60.2,23.0,30.13,North,350,7.0,12.0,24,0.00,,,0.00,902,weatherlink.com 1.10,2013-05-04 20:06:00,
2013-05-04 15:21:00,60.8,25.0,30.14,North,360,7.0,13.0,25,0.00,,,0.00,877,weatherlink.com 1.10,2013-05-04 20:21:00,
2013-05-04 15:36:00,61.4,24.0,30.13,NNW,335,10.0,12.0,24,0.00,,,0.00,854,weatherlink.com 1.10,2013-05-04 20:36:00,
2013-05-04 15:51:00,60.7,21.0,30.12,ENE,74,4.0,13.0,22,0.00,,,0.00,824,weatherlink.com 1.10,2013-05-04 20:51:00,
2013-05-04 16:06:00,61.4,23.0,30.12,NNE,15,1.0,13.0,23,0.00,,,0.00,795,weatherlink.com 1.10,2013-05-04 21:06:00,
2013-05-04 16:21:00,61.3,23.0,30.12,WNW,296,2.0,14.0,23,0.00,,,0.00,763,weatherlink.com 1.10,2013-05-04 21:21:00,
2013-05-04 16:36:00,61.7,23.0,30.11,North,355,1.0,12.0,23,0.00,,,0.00,721,weatherlink.com 1.10,2013-05-04 21:36:00,
2013-05-04 16:51:00,61.0,22.0,30.11,NE,52,4.0,13.0,22,0.00,,,0.00,684,weatherlink.com 1.10,2013-05-04 21:51:00,
2013-05-04 17:06:00,61.4,23.0,30.11,NNW,332,1.0,13.0,23,0.00,,,0.00,640,weatherlink.com 1.10,2013-05-04 22:06:00,
2013-05-04 17:21:00,61.5,23.0,30.11,North,355,7.0,11.0,23,0.00,,,0.00,596,weatherlink.com 1.10,2013-05-04 22:21:00,
2013-05-04 17:36:00,60.1,22.0,30.11,NNW,334,1.0,13.0,23,0.00,,,0.00,552,weatherlink.com 1.10,2013-05-04 22:36:00,
2013-05-04 17:51:00,59.9,23.0,30.11,NE,49,3.0,12.0,24,0.00,,,0.00,504,weatherlink.com 1.10,2013-05-04 22:51:00,
2013-05-04 18:06:00,60.0,23.0,30.11,NNW,340,0.0,11.0,24,0.00,,,0.00,455,weatherlink.com 1.10,2013-05-04 23:06:00,
2013-05-04 18:21:00,59.4,23.0,30.12,NE,44,1.0,13.0,25,0.00,,,0.00,406,weatherlink.com 1.10,2013-05-04 23:21:00,